Disclaimer

Please do not use the information listed here in-flight or in-navigation, as they are not provided to us by the airports but are provided by volunteers, so they might be outdated.

Search


Regions


Airport information page

Radio informations:
Tower (TWR) - 118.7 MHz
Ground (GND) - 121.9 MHz
Approach (APP) - 121.1 MHz

Latitude: N/A
Longitude: N/A
Elevation: N/A
Operating hours: N/A
Operating agency: N/A
Timezone: N/A
Fuel: N/A

Recent METARs:
RCKH 171300Z 34008KT 290V030 7000 FEW015 SCT100 18/14 Q1020 NOSIG RMK A3014
RCKH 171330Z 35008KT 7000 FEW015 SCT100 18/14 Q1020 NOSIG RMK A3014
RCKH 171400Z 34007KT 300V010 7000 FEW016 SCT120 17/14 Q1021 NOSIG RMK A3015

Airport on the map: